Time;durP1;ratioP1;P1;durP2;ratioP2;P2;SDS_P1;SDS_P2;PMS_P1;PMS_P2;Temp;Humidity;BMP_temperature;BMP_pressure;BME280_temperature;BME280_humidity;BME280_pressure;Samples;Min_cycle;Max_cycle;Signal;HPM_P1;HPM_P2
2022/04/13 00:01:15;;;;;;;6.97;3.75;;;;;;;;;;5006000;28;20045;-68
2022/04/13 00:03:42;;;;;;;8.73;3.83;;;;;;;;;;5017221;28;20057;-68
2022/04/13 00:06:08;;;;;;;8.48;3.72;;;;;;;;;;5019596;28;20123;-64
2022/04/13 00:08:34;;;;;;;5.95;3.60;;;;;;;;;;5025498;28;20037;-67
2022/04/13 00:11:00;;;;;;;6.60;3.60;;;;;;;;;;5025675;28;20025;-68
2022/04/13 00:13:26;;;;;;;7.30;3.40;;;;;;;;;;5022401;28;20032;-68
2022/04/13 00:15:51;;;;;;;9.88;3.45;;;;;;;;;;5033265;28;20041;-68
2022/04/13 00:18:17;;;;;;;6.35;3.35;;;;;;;;;;5026988;28;20033;-68
2022/04/13 00:20:42;;;;;;;6.15;3.50;;;;;;;;;;5026529;28;20053;-68
2022/04/13 00:23:08;;;;;;;6.95;3.83;;;;;;;;;;5026351;28;20083;-68
2022/04/13 00:25:33;;;;;;;6.30;3.70;;;;;;;;;;5028603;28;20470;-68
2022/04/13 00:27:59;;;;;;;8.25;3.78;;;;;;;;;;5022028;28;20034;-68
2022/04/13 00:30:25;;;;;;;7.70;3.67;;;;;;;;;;5046167;28;20040;-68
2022/04/13 00:32:50;;;;;;;5.82;3.40;;;;;;;;;;5021780;28;20038;-63
2022/04/13 00:35:17;;;;;;;7.30;3.60;;;;;;;;;;5037957;28;20029;-69
2022/04/13 00:37:42;;;;;;;5.82;3.40;;;;;;;;;;5032519;28;20036;-68
2022/04/13 00:40:09;;;;;;;7.70;3.72;;;;;;;;;;5032545;28;20040;-68
2022/04/13 00:42:34;;;;;;;7.45;3.55;;;;;;;;;;5039722;28;20064;-68
2022/04/13 00:45:00;;;;;;;5.50;3.35;;;;;;;;;;5030038;28;20061;-68
2022/04/13 00:47:26;;;;;;;6.93;3.55;;;;;;;;;;5015125;28;20394;-68
2022/04/13 00:49:54;;;;;;;5.65;3.40;;;;;;;;;;5045161;28;20094;-68
2022/04/13 00:52:21;;;;;;;5.43;3.85;;;;;;;;;;5034118;28;20030;-68
2022/04/13 00:54:48;;;;;;;7.22;3.92;;;;;;;;;;5035399;28;20033;-69
2022/04/13 00:57:17;;;;;;;6.07;3.55;;;;;;;;;;5043971;28;20116;-64
2022/04/13 00:59:45;;;;;;;9.32;3.85;;;;;;;;;;5037110;28;20040;-68
2022/04/13 01:02:12;;;;;;;6.72;3.70;;;;;;;;;;5027529;28;20030;-68
2022/04/13 01:04:38;;;;;;;7.75;3.90;;;;;;;;;;5025019;28;20028;-68
2022/04/13 01:07:07;;;;;;;7.88;3.60;;;;;;;;;;5026214;28;20032;-68
2022/04/13 01:09:34;;;;;;;10.80;3.80;;;;;;;;;;5029763;28;20342;-68
2022/04/13 01:11:59;;;;;;;6.63;3.80;;;;;;;;;;5034431;28;20044;-68
2022/04/13 01:14:25;;;;;;;5.78;3.47;;;;;;;;;;5016316;28;20030;-68
2022/04/13 01:16:50;;;;;;;6.53;3.60;;;;;;;;;;5023396;28;20030;-68
2022/04/13 01:19:17;;;;;;;6.40;3.78;;;;;;;;;;5030712;28;20496;-64
2022/04/13 01:21:52;;;;;;;6.07;3.67;;;;;;;;;;5023291;28;20135;-69
2022/04/13 01:24:17;;;;;;;8.05;3.97;;;;;;;;;;5042847;28;20109;-67
2022/04/13 01:26:43;;;;;;;9.27;4.00;;;;;;;;;;5036268;28;20115;-68
2022/04/13 01:29:09;;;;;;;7.15;4.00;;;;;;;;;;5036398;28;20045;-68
2022/04/13 01:31:34;;;;;;;7.70;3.85;;;;;;;;;;5044000;28;20698;-66
2022/04/13 01:34:00;;;;;;;5.93;3.70;;;;;;;;;;5038224;28;20074;-69
2022/04/13 01:36:27;;;;;;;7.65;4.18;;;;;;;;;;5042183;28;20394;-68
2022/04/13 01:38:52;;;;;;;8.23;3.80;;;;;;;;;;5040962;28;20041;-68
2022/04/13 01:41:18;;;;;;;7.95;3.67;;;;;;;;;;5030854;28;20336;-66
2022/04/13 01:43:43;;;;;;;7.80;3.72;;;;;;;;;;5019447;28;20494;-68
2022/04/13 01:46:09;;;;;;;7.38;3.97;;;;;;;;;;5033314;28;20525;-68
2022/04/13 01:48:34;;;;;;;8.52;3.50;;;;;;;;;;5028068;28;20068;-67
2022/04/13 01:50:59;;;;;;;6.93;3.75;;;;;;;;;;5046601;28;20036;-67
2022/04/13 01:53:26;;;;;;;9.13;3.85;;;;;;;;;;5039385;28;20021;-68
2022/04/13 01:55:51;;;;;;;5.75;3.53;;;;;;;;;;5045797;28;20040;-68
2022/04/13 01:58:17;;;;;;;8.65;4.15;;;;;;;;;;5036926;28;20387;-63
2022/04/13 02:00:42;;;;;;;7.57;3.90;;;;;;;;;;5027813;28;20066;-68
2022/04/13 02:03:09;;;;;;;7.20;4.05;;;;;;;;;;5027712;28;20040;-68
2022/04/13 02:05:34;;;;;;;6.55;3.60;;;;;;;;;;5037251;28;20404;-67
2022/04/13 02:08:00;;;;;;;8.63;3.70;;;;;;;;;;5028027;28;20080;-68
2022/04/13 02:10:25;;;;;;;6.07;3.95;;;;;;;;;;5050058;28;20052;-68
2022/04/13 02:12:51;;;;;;;7.10;3.85;;;;;;;;;;5044526;28;20103;-68
2022/04/13 02:15:17;;;;;;;8.10;4.30;;;;;;;;;;5034563;28;20025;-64
2022/04/13 02:17:42;;;;;;;8.10;4.43;;;;;;;;;;5025195;28;20480;-68
2022/04/13 02:20:20;;;;;;;9.07;3.92;;;;;;;;;;5031266;28;20030;-68
2022/04/13 02:22:46;;;;;;;7.30;4.18;;;;;;;;;;5024776;28;20066;-68
2022/04/13 02:25:12;;;;;;;6.13;3.67;;;;;;;;;;5038705;28;20040;-68
2022/04/13 02:27:37;;;;;;;6.47;3.90;;;;;;;;;;5027308;28;20037;-67
2022/04/13 02:30:06;;;;;;;5.47;3.70;;;;;;;;;;5024484;28;20036;-66
2022/04/13 02:32:32;;;;;;;6.78;3.80;;;;;;;;;;5016728;28;20034;-68
2022/04/13 02:34:57;;;;;;;6.35;3.83;;;;;;;;;;5013700;28;20048;-69
2022/04/13 02:37:23;;;;;;;7.10;4.18;;;;;;;;;;5025268;28;20025;-67
2022/04/13 02:39:48;;;;;;;6.22;3.72;;;;;;;;;;5045508;28;20471;-69
2022/04/13 02:42:15;;;;;;;7.65;4.00;;;;;;;;;;5041069;28;20544;-69
2022/04/13 02:44:44;;;;;;;8.07;4.57;;;;;;;;;;5019748;28;20028;-67
2022/04/13 02:47:10;;;;;;;6.72;3.97;;;;;;;;;;5029466;28;20074;-69
2022/04/13 02:49:36;;;;;;;8.15;4.30;;;;;;;;;;5017270;28;20063;-68
2022/04/13 02:52:01;;;;;;;9.60;4.03;;;;;;;;;;5037009;28;20075;-69
2022/04/13 02:54:27;;;;;;;7.57;4.10;;;;;;;;;;5029385;28;20045;-69
2022/04/13 02:56:52;;;;;;;6.75;4.10;;;;;;;;;;5013979;28;20029;-69
2022/04/13 02:59:18;;;;;;;7.22;4.10;;;;;;;;;;5038331;28;20049;-67
2022/04/13 03:01:43;;;;;;;7.15;4.20;;;;;;;;;;5032236;28;20540;-69
2022/04/13 03:04:09;;;;;;;9.52;4.10;;;;;;;;;;5019985;28;20144;-69
2022/04/13 03:06:35;;;;;;;7.30;3.97;;;;;;;;;;5015069;28;20104;-64
2022/04/13 03:09:01;;;;;;;8.75;4.32;;;;;;;;;;5021882;28;20475;-68
2022/04/13 03:11:26;;;;;;;6.47;4.13;;;;;;;;;;5021515;28;20021;-68
2022/04/13 03:13:51;;;;;;;6.30;3.95;;;;;;;;;;5026609;28;20118;-68
2022/04/13 03:16:17;;;;;;;6.93;3.97;;;;;;;;;;5032632;28;20029;-69
2022/04/13 03:18:42;;;;;;;8.98;4.35;;;;;;;;;;5026739;28;20033;-66
2022/04/13 03:21:07;;;;;;;8.13;4.15;;;;;;;;;;5041788;28;20041;-68
2022/04/13 03:23:33;;;;;;;7.60;4.03;;;;;;;;;;5039846;28;20048;-69
2022/04/13 03:25:58;;;;;;;8.70;4.30;;;;;;;;;;5028810;28;20038;-69
2022/04/13 03:28:24;;;;;;;7.05;4.20;;;;;;;;;;5045278;28;20040;-65
2022/04/13 03:30:50;;;;;;;7.82;4.28;;;;;;;;;;5043410;28;20185;-68
2022/04/13 03:33:17;;;;;;;8.43;4.47;;;;;;;;;;5018247;28;20475;-69
2022/04/13 03:35:43;;;;;;;7.07;4.50;;;;;;;;;;5025257;28;20036;-68
2022/04/13 03:38:09;;;;;;;7.30;4.25;;;;;;;;;;5020350;28;20038;-67
2022/04/13 03:40:34;;;;;;;6.95;4.15;;;;;;;;;;5022814;28;20045;-69
2022/04/13 03:43:00;;;;;;;6.68;3.90;;;;;;;;;;5015752;28;20064;-69
2022/04/13 03:45:25;;;;;;;6.43;3.85;;;;;;;;;;5025534;28;20035;-65
2022/04/13 03:47:50;;;;;;;7.70;4.20;;;;;;;;;;5027235;28;20387;-68
2022/04/13 03:50:17;;;;;;;8.82;4.20;;;;;;;;;;5038373;28;20064;-68
2022/04/13 03:52:43;;;;;;;6.68;4.05;;;;;;;;;;5029833;28;20186;-68
2022/04/13 03:55:10;;;;;;;12.45;4.50;;;;;;;;;;5028845;28;20430;-69
2022/04/13 03:57:36;;;;;;;6.60;4.10;;;;;;;;;;5023417;28;20032;-69
2022/04/13 04:00:03;;;;;;;8.38;4.32;;;;;;;;;;5026364;28;20036;-69
2022/04/13 04:02:28;;;;;;;6.68;4.35;;;;;;;;;;5038400;28;20029;-69
2022/04/13 04:04:53;;;;;;;8.15;4.28;;;;;;;;;;5039953;28;20493;-67
2022/04/13 04:07:19;;;;;;;8.48;4.43;;;;;;;;;;5020848;28;20482;-66
2022/04/13 04:09:44;;;;;;;9.93;4.40;;;;;;;;;;5020790;28;20683;-69
2022/04/13 04:12:10;;;;;;;12.80;4.50;;;;;;;;;;5026913;28;20107;-69
2022/04/13 04:14:35;;;;;;;6.93;4.00;;;;;;;;;;5017766;28;20026;-69
2022/04/13 04:17:01;;;;;;;8.55;4.32;;;;;;;;;;5024727;28;20471;-69
2022/04/13 04:19:26;;;;;;;8.20;4.10;;;;;;;;;;5015137;28;20506;-65
2022/04/13 04:21:51;;;;;;;7.68;3.95;;;;;;;;;;5019012;28;20045;-69
2022/04/13 04:24:17;;;;;;;7.82;4.20;;;;;;;;;;5043716;28;20033;-69
2022/04/13 04:26:43;;;;;;;8.98;4.65;;;;;;;;;;5045228;28;20036;-69
2022/04/13 04:29:09;;;;;;;8.38;4.65;;;;;;;;;;5041472;28;20490;-69
2022/04/13 04:31:49;;;;;;;7.82;4.13;;;;;;;;;;5031457;28;20032;-69
2022/04/13 04:34:16;;;;;;;6.95;4.30;;;;;;;;;;5027307;28;20033;-68
2022/04/13 04:36:41;;;;;;;6.85;4.25;;;;;;;;;;5017766;28;20128;-69
2022/04/13 04:39:07;;;;;;;6.95;4.55;;;;;;;;;;5032476;28;20398;-69
2022/04/13 04:41:32;;;;;;;10.68;5.00;;;;;;;;;;5047691;28;20409;-69
2022/04/13 04:43:58;;;;;;;10.65;4.90;;;;;;;;;;5043171;28;20423;-68
2022/04/13 04:46:24;;;;;;;10.15;4.90;;;;;;;;;;5040396;28;20463;-70
2022/04/13 04:48:49;;;;;;;8.60;4.63;;;;;;;;;;5048534;28;20036;-68
2022/04/13 04:51:15;;;;;;;9.38;4.40;;;;;;;;;;5043800;28;20036;-69
2022/04/13 04:53:40;;;;;;;11.25;4.82;;;;;;;;;;5028952;28;20036;-67
2022/04/13 04:56:06;;;;;;;9.90;4.78;;;;;;;;;;5031892;28;20033;-66
2022/04/13 04:58:31;;;;;;;13.55;4.78;;;;;;;;;;5043933;28;20458;-71
2022/04/13 05:00:56;;;;;;;7.63;4.63;;;;;;;;;;5045950;28;20029;-67
2022/04/13 05:03:22;;;;;;;12.18;4.60;;;;;;;;;;5018927;28;20125;-66
2022/04/13 05:05:47;;;;;;;10.95;4.80;;;;;;;;;;5034445;28;20163;-66
2022/04/13 05:08:15;;;;;;;12.23;4.60;;;;;;;;;;5021547;28;20029;-66
2022/04/13 05:10:42;;;;;;;8.75;4.50;;;;;;;;;;5036618;28;20102;-69
2022/04/13 05:13:08;;;;;;;8.88;4.90;;;;;;;;;;5050054;28;20047;-69
2022/04/13 05:15:33;;;;;;;10.10;4.57;;;;;;;;;;5050747;28;20407;-68
2022/04/13 05:17:59;;;;;;;10.45;5.15;;;;;;;;;;5051155;28;20025;-69
2022/04/13 05:20:24;;;;;;;11.90;4.88;;;;;;;;;;5040738;28;20048;-68
2022/04/13 05:22:50;;;;;;;11.43;4.90;;;;;;;;;;5030798;28;20065;-68
2022/04/13 05:25:17;;;;;;;10.70;4.85;;;;;;;;;;5029357;28;20110;-68
2022/04/13 05:27:43;;;;;;;10.60;4.50;;;;;;;;;;5049296;28;20037;-68
2022/04/13 05:30:10;;;;;;;10.55;4.82;;;;;;;;;;5035561;28;20026;-66
2022/04/13 05:32:58;;;;;;;13.63;5.05;;;;;;;;;;5041154;28;20360;-67
2022/04/13 05:35:26;;;;;;;10.45;4.75;;;;;;;;;;5030819;28;20065;-68
2022/04/13 05:37:53;;;;;;;11.98;4.82;;;;;;;;;;5032030;28;20044;-66
2022/04/13 05:40:19;;;;;;;11.13;4.70;;;;;;;;;;5035904;28;20036;-68
2022/04/13 05:42:45;;;;;;;15.55;5.38;;;;;;;;;;5046032;28;20079;-68
2022/04/13 05:45:11;;;;;;;14.35;5.95;;;;;;;;;;5035143;28;20104;-66
2022/04/13 05:47:38;;;;;;;14.07;5.40;;;;;;;;;;5029694;28;20120;-66
2022/04/13 05:50:05;;;;;;;13.25;5.15;;;;;;;;;;5038907;28;20791;-66
2022/04/13 05:52:30;;;;;;;10.57;5.15;;;;;;;;;;5029023;28;20033;-65
2022/04/13 05:54:56;;;;;;;13.43;5.57;;;;;;;;;;5031559;28;20460;-66
2022/04/13 05:57:21;;;;;;;11.70;5.00;;;;;;;;;;5030969;28;20128;-67
2022/04/13 05:59:46;;;;;;;10.25;4.75;;;;;;;;;;5030203;28;20457;-67
2022/04/13 06:02:12;;;;;;;11.93;5.10;;;;;;;;;;5030607;28;20041;-71
2022/04/13 06:04:37;;;;;;;9.23;4.57;;;;;;;;;;5031496;28;20471;-66
2022/04/13 06:07:03;;;;;;;15.32;5.32;;;;;;;;;;5034331;28;20171;-66
2022/04/13 06:09:28;;;;;;;11.93;5.05;;;;;;;;;;5034794;28;20383;-68
2022/04/13 06:11:53;;;;;;;12.00;4.93;;;;;;;;;;5033287;28;20395;-65
2022/04/13 06:14:20;;;;;;;16.88;5.57;;;;;;;;;;5034870;28;20111;-72
2022/04/13 06:16:45;;;;;;;14.98;5.32;;;;;;;;;;5033375;28;20032;-62
2022/04/13 06:19:11;;;;;;;17.80;5.30;;;;;;;;;;5034564;28;20025;-76
2022/04/13 06:21:36;;;;;;;13.52;5.15;;;;;;;;;;5031417;28;20052;-64
2022/04/13 06:24:02;;;;;;;18.33;5.18;;;;;;;;;;5033098;28;20025;-67
2022/04/13 06:26:27;;;;;;;22.75;5.57;;;;;;;;;;5034215;28;20080;-65
2022/04/13 06:28:53;;;;;;;20.15;5.38;;;;;;;;;;5033508;28;20091;-65
2022/04/13 06:31:19;;;;;;;23.38;5.55;;;;;;;;;;5034176;28;20109;-65
2022/04/13 06:33:45;;;;;;;27.20;6.20;;;;;;;;;;5031985;28;20036;-66
2022/04/13 06:36:10;;;;;;;20.27;5.68;;;;;;;;;;5033552;28;20032;-66
2022/04/13 06:38:40;;;;;;;15.95;5.15;;;;;;;;;;5033180;28;20029;-66
2022/04/13 06:41:09;;;;;;;12.43;5.30;;;;;;;;;;5032617;28;20032;-67
2022/04/13 06:43:34;;;;;;;17.50;5.75;;;;;;;;;;5033203;28;20033;-64
2022/04/13 06:46:00;;;;;;;14.52;5.53;;;;;;;;;;5032222;28;20074;-68
2022/04/13 06:48:25;;;;;;;12.27;5.28;;;;;;;;;;5032204;28;20029;-67
2022/04/13 06:50:50;;;;;;;11.63;5.45;;;;;;;;;;5032260;28;20029;-66
2022/04/13 06:53:17;;;;;;;16.65;6.18;;;;;;;;;;5033850;28;20044;-66
2022/04/13 06:55:44;;;;;;;17.48;6.35;;;;;;;;;;5031626;28;20060;-65
2022/04/13 06:58:09;;;;;;;14.38;6.72;;;;;;;;;;5033597;28;20030;-66
2022/04/13 07:00:34;;;;;;;18.23;6.78;;;;;;;;;;5033019;28;20044;-64
2022/04/13 07:03:00;;;;;;;12.55;6.53;;;;;;;;;;5033153;28;20029;-65
2022/04/13 07:05:26;;;;;;;14.35;7.00;;;;;;;;;;5032020;28;20033;-65
2022/04/13 07:07:52;;;;;;;17.33;7.35;;;;;;;;;;5032627;28;20025;-66
2022/04/13 07:10:17;;;;;;;14.63;7.30;;;;;;;;;;5033491;28;20040;-66
2022/04/13 07:12:43;;;;;;;18.45;7.10;;;;;;;;;;5032378;28;20064;-62
2022/04/13 07:15:08;;;;;;;13.95;7.30;;;;;;;;;;5032197;28;20391;-62
2022/04/13 07:17:35;;;;;;;15.15;7.72;;;;;;;;;;5032582;28;20030;-61
2022/04/13 07:20:00;;;;;;;15.57;7.78;;;;;;;;;;5032829;28;20424;-61
2022/04/13 07:22:26;;;;;;;14.57;7.30;;;;;;;;;;5032544;28;20084;-62
2022/04/13 07:24:52;;;;;;;19.05;8.27;;;;;;;;;;5032422;28;20464;-62
2022/04/13 07:27:17;;;;;;;16.60;7.78;;;;;;;;;;5031944;28;20116;-61
2022/04/13 07:29:49;;;;;;;13.80;7.40;;;;;;;;;;5031125;28;20061;-62
2022/04/13 07:32:14;;;;;;;14.18;7.22;;;;;;;;;;5017839;28;20026;-62
2022/04/13 07:34:41;;;;;;;11.95;6.97;;;;;;;;;;5012520;28;20049;-62
2022/04/13 07:37:06;;;;;;;13.27;7.70;;;;;;;;;;5027871;28;20084;-62
2022/04/13 07:39:32;;;;;;;14.40;7.47;;;;;;;;;;5031584;28;20079;-62
2022/04/13 07:41:57;;;;;;;18.50;7.70;;;;;;;;;;5031767;28;20029;-63
2022/04/13 07:44:22;;;;;;;14.68;7.45;;;;;;;;;;5032956;28;20037;-63
2022/04/13 07:46:48;;;;;;;15.68;7.35;;;;;;;;;;5031759;28;20033;-63
2022/04/13 07:49:13;;;;;;;18.58;8.07;;;;;;;;;;5032583;28;20029;-63
2022/04/13 07:51:42;;;;;;;19.58;7.45;;;;;;;;;;5031208;28;20451;-63
2022/04/13 07:54:07;;;;;;;14.40;7.90;;;;;;;;;;5032562;28;20037;-64
2022/04/13 07:56:33;;;;;;;18.95;8.35;;;;;;;;;;5032328;28;20112;-64
2022/04/13 07:58:58;;;;;;;15.80;7.80;;;;;;;;;;5030461;28;20025;-63
2022/04/13 08:01:23;;;;;;;17.83;7.63;;;;;;;;;;5031141;28;20060;-63
2022/04/13 08:03:49;;;;;;;13.73;7.32;;;;;;;;;;5031657;28;20033;-63
2022/04/13 08:06:14;;;;;;;16.58;7.35;;;;;;;;;;5030499;28;20064;-62
2022/04/13 08:08:40;;;;;;;17.10;7.38;;;;;;;;;;5033068;28;20041;-63
2022/04/13 08:11:06;;;;;;;14.82;6.88;;;;;;;;;;5016570;28;20127;-63
2022/04/13 08:13:32;;;;;;;15.90;7.75;;;;;;;;;;5026094;28;20025;-63
2022/04/13 08:15:58;;;;;;;18.23;7.72;;;;;;;;;;5033768;28;20090;-63
2022/04/13 08:18:23;;;;;;;16.58;7.70;;;;;;;;;;5032165;28;20501;-63
2022/04/13 08:20:49;;;;;;;18.23;7.90;;;;;;;;;;5030831;28;20045;-63
2022/04/13 08:23:15;;;;;;;15.75;8.27;;;;;;;;;;5042177;28;20494;-63
2022/04/13 08:25:41;;;;;;;14.68;8.00;;;;;;;;;;5050334;28;20041;-63
2022/04/13 08:28:06;;;;;;;16.48;7.85;;;;;;;;;;5042190;28;20431;-62
2022/04/13 08:30:31;;;;;;;14.85;8.40;;;;;;;;;;5031840;28;20079;-63
2022/04/13 08:32:57;;;;;;;16.50;8.15;;;;;;;;;;5043120;28;20240;-63
2022/04/13 08:35:22;;;;;;;17.48;8.32;;;;;;;;;;5043423;28;20125;-61
2022/04/13 08:37:51;;;;;;;19.70;9.63;;;;;;;;;;5038705;28;20024;-62
2022/04/13 08:40:19;;;;;;;16.45;8.88;;;;;;;;;;5021782;28;20029;-63
2022/04/13 08:43:10;;;;;;;15.48;8.85;;;;;;;;;;5047881;28;20029;-61
2022/04/13 08:45:53;;;;;;;15.75;8.45;;;;;;;;;;5044103;28;20041;-62
2022/04/13 08:48:22;;;;;;;18.92;8.55;;;;;;;;;;5045663;28;20398;-62
2022/04/13 08:50:54;;;;;;;14.55;8.05;;;;;;;;;;5046043;28;20041;-61
2022/04/13 08:53:20;;;;;;;20.15;8.65;;;;;;;;;;5035568;28;20104;-62
2022/04/13 08:55:53;;;;;;;19.83;8.20;;;;;;;;;;5034713;28;20495;-61
2022/04/13 08:59:04;;;;;;;17.33;8.05;;;;;;;;;;5039248;28;20036;-62
2022/04/13 09:01:41;;;;;;;15.68;7.93;;;;;;;;;;5006101;28;20076;-62
2022/04/13 09:04:10;;;;;;;17.55;7.47;;;;;;;;;;5041189;28;20033;-63
2022/04/13 09:06:42;;;;;;;14.57;7.75;;;;;;;;;;5038323;28;20037;-63
2022/04/13 09:09:25;;;;;;;15.98;7.88;;;;;;;;;;5031030;28;20037;-63
2022/04/13 09:11:52;;;;;;;17.80;7.40;;;;;;;;;;5044583;28;20033;-63
2022/04/13 09:14:18;;;;;;;18.08;7.75;;;;;;;;;;5032161;28;20379;-63
2022/04/13 09:16:43;;;;;;;15.57;8.02;;;;;;;;;;5029070;28;20041;-64
2022/04/13 09:19:09;;;;;;;14.95;7.47;;;;;;;;;;5017237;28;20394;-64
2022/04/13 09:21:35;;;;;;;16.83;7.30;;;;;;;;;;5027541;28;20430;-64
2022/04/13 09:24:01;;;;;;;17.40;6.82;;;;;;;;;;5048013;28;20029;-62
2022/04/13 09:26:27;;;;;;;15.82;6.13;;;;;;;;;;5044836;28;20037;-62
2022/04/13 09:28:52;;;;;;;19.67;7.57;;;;;;;;;;5048593;28;20037;-62
2022/04/13 09:31:20;;;;;;;15.52;7.03;;;;;;;;;;5049228;28;20087;-62
2022/04/13 09:33:45;;;;;;;15.30;6.38;;;;;;;;;;5034425;28;20563;-61
2022/04/13 09:36:11;;;;;;;12.95;6.45;;;;;;;;;;5028143;28;20112;-62
2022/04/13 09:38:37;;;;;;;12.38;5.82;;;;;;;;;;5037908;28;20065;-62
2022/04/13 09:41:08;;;;;;;10.77;5.55;;;;;;;;;;5033232;28;20601;-62
2022/04/13 09:43:34;;;;;;;14.55;5.72;;;;;;;;;;5040670;28;20033;-62
2022/04/13 09:45:59;;;;;;;10.65;4.28;;;;;;;;;;5052816;28;20029;-62
2022/04/13 09:48:26;;;;;;;13.27;4.43;;;;;;;;;;5053248;28;20041;-62
2022/04/13 09:50:55;;;;;;;15.63;5.07;;;;;;;;;;5044221;28;20036;-63
2022/04/13 09:53:21;;;;;;;15.30;4.53;;;;;;;;;;5053899;28;20033;-62
2022/04/13 09:55:49;;;;;;;11.77;4.55;;;;;;;;;;5051196;28;20029;-62
2022/04/13 09:58:17;;;;;;;11.25;4.75;;;;;;;;;;5052306;28;20039;-62
2022/04/13 10:00:46;;;;;;;10.65;4.20;;;;;;;;;;5053229;28;20033;-63
2022/04/13 10:03:13;;;;;;;8.80;3.25;;;;;;;;;;5052859;28;20028;-62
2022/04/13 10:05:42;;;;;;;7.60;3.17;;;;;;;;;;5054885;28;20124;-62
2022/04/13 10:08:10;;;;;;;8.43;3.38;;;;;;;;;;5033810;28;20037;-62
2022/04/13 10:10:38;;;;;;;9.00;3.83;;;;;;;;;;5053976;28;20032;-63
2022/04/13 10:13:04;;;;;;;9.60;3.20;;;;;;;;;;5049679;28;20722;-62
2022/04/13 10:15:29;;;;;;;6.85;3.20;;;;;;;;;;5054614;28;20478;-62
2022/04/13 10:17:59;;;;;;;9.05;3.70;;;;;;;;;;5046535;28;20025;-63
2022/04/13 10:20:42;;;;;;;7.00;3.00;;;;;;;;;;5051342;28;20033;-62
2022/04/13 10:23:13;;;;;;;7.85;2.58;;;;;;;;;;5051200;28;20086;-63
2022/04/13 10:25:40;;;;;;;9.23;3.40;;;;;;;;;;5047932;28;20033;-64
2022/04/13 10:28:06;;;;;;;10.23;3.63;;;;;;;;;;5050183;28;20039;-63
2022/04/13 10:30:36;;;;;;;7.95;3.90;;;;;;;;;;5052041;28;20037;-64
2022/04/13 10:33:03;;;;;;;;;;;;;;;;;;5050570;28;20032;-64
2022/04/13 10:35:31;;;;;;;8.77;4.25;;;;;;;;;;5053093;28;19947;-63
2022/04/13 10:37:56;;;;;;;9.00;4.03;;;;;;;;;;5050607;28;20094;-63
2022/04/13 10:40:30;;;;;;;8.13;3.60;;;;;;;;;;5050851;28;20418;-63
2022/04/13 10:43:03;;;;;;;5.75;3.15;;;;;;;;;;5020566;28;20057;-63
2022/04/13 10:45:29;;;;;;;9.27;2.72;;;;;;;;;;5029941;28;20463;-64
2022/04/13 10:48:08;;;;;;;4.53;2.05;;;;;;;;;;5049529;28;20058;-63
2022/04/13 10:50:57;;;;;;;8.02;2.78;;;;;;;;;;5051983;28;20044;-64
2022/04/13 10:53:31;;;;;;;8.70;3.30;;;;;;;;;;5050608;28;20033;-63
2022/04/13 10:56:02;;;;;;;5.85;3.00;;;;;;;;;;5049968;28;20025;-63
2022/04/13 10:58:46;;;;;;;;;;;;;;;;;;5034126;28;20030;-63
2022/04/13 11:01:13;;;;;;;10.27;3.65;;;;;;;;;;5032760;28;20011;-64
2022/04/13 11:03:39;;;;;;;9.00;3.45;;;;;;;;;;5051751;28;20071;-64
2022/04/13 11:06:07;;;;;;;7.03;3.45;;;;;;;;;;5048703;28;20036;-64
2022/04/13 11:08:44;;;;;;;9.02;3.78;;;;;;;;;;5053498;28;20056;-63
2022/04/13 11:11:21;;;;;;;8.13;3.40;;;;;;;;;;5047902;28;20033;-63
2022/04/13 11:13:48;;;;;;;9.80;3.50;;;;;;;;;;5051405;28;20029;-63
2022/04/13 11:16:20;;;;;;;8.63;3.10;;;;;;;;;;5036160;28;20040;-64
2022/04/13 11:19:00;;;;;;;6.95;2.65;;;;;;;;;;5052780;28;20025;-63
2022/04/13 11:21:26;;;;;;;7.00;3.50;;;;;;;;;;5050321;28;20055;-63
2022/04/13 11:23:53;;;;;;;7.18;3.55;;;;;;;;;;5047977;28;20116;-63
2022/04/13 11:26:34;;;;;;;7.10;2.90;;;;;;;;;;5049692;28;20470;-64
2022/04/13 11:29:09;;;;;;;8.55;3.17;;;;;;;;;;5049300;28;20482;-64
2022/04/13 11:32:00;;;;;;;6.90;2.78;;;;;;;;;;5050101;28;20068;-63
2022/04/13 11:34:29;;;;;;;7.60;2.72;;;;;;;;;;5036875;28;20500;-63
2022/04/13 11:36:59;;;;;;;7.68;2.53;;;;;;;;;;5046926;28;20083;-63
2022/04/13 11:39:48;;;;;;;6.97;3.10;;;;;;;;;;5045470;28;20052;-63
2022/04/13 11:42:19;;;;;;;9.35;3.83;;;;;;;;;;5032996;28;20051;-63
2022/04/13 11:45:02;;;;;;;9.45;4.20;;;;;;;;;;5038502;28;20048;-62
2022/04/13 11:47:39;;;;;;;9.48;4.10;;;;;;;;;;5039109;28;20047;-63
2022/04/13 11:50:19;;;;;;;10.45;4.00;;;;;;;;;;5044436;28;20144;-64
2022/04/13 11:52:52;;;;;;;9.25;3.90;;;;;;;;;;5045467;28;20025;-63
2022/04/13 11:55:19;;;;;;;9.35;4.07;;;;;;;;;;5035132;28;20100;-63
2022/04/13 11:58:09;;;;;;;10.18;4.32;;;;;;;;;;5040871;28;20520;-63
2022/04/13 12:00:45;;;;;;;9.27;3.95;;;;;;;;;;5051851;28;20526;-62
2022/04/13 12:03:13;;;;;;;7.10;3.58;;;;;;;;;;5044922;28;20048;-62
2022/04/13 12:05:41;;;;;;;10.57;3.85;;;;;;;;;;5046725;28;20514;-62
2022/04/13 12:08:14;;;;;;;11.00;3.58;;;;;;;;;;5042922;28;20104;-62
2022/04/13 12:10:45;;;;;;;8.20;3.95;;;;;;;;;;5043131;28;20057;-63
2022/04/13 12:13:11;;;;;;;7.45;3.72;;;;;;;;;;5032084;28;20706;-62
2022/04/13 12:15:50;;;;;;;6.65;4.00;;;;;;;;;;5045210;28;20471;-62
2022/04/13 12:18:16;;;;;;;9.13;3.60;;;;;;;;;;5039451;28;20486;-63
2022/04/13 12:20:42;;;;;;;10.75;3.92;;;;;;;;;;5050893;28;20056;-62
2022/04/13 12:23:20;;;;;;;9.80;4.15;;;;;;;;;;5030352;28;20034;-63
2022/04/13 12:25:47;;;;;;;9.00;3.90;;;;;;;;;;5039962;28;20029;-63
2022/04/13 12:28:13;;;;;;;9.65;3.65;;;;;;;;;;5047955;28;20047;-63
2022/04/13 12:30:40;;;;;;;7.90;3.50;;;;;;;;;;5051764;28;20033;-63
2022/04/13 12:33:13;;;;;;;7.20;3.40;;;;;;;;;;5048828;28;20032;-63
2022/04/13 12:35:50;;;;;;;12.15;3.50;;;;;;;;;;5047816;28;20479;-63
2022/04/13 12:38:32;;;;;;;7.57;3.45;;;;;;;;;;5049015;28;20866;-62
2022/04/13 12:41:04;;;;;;;8.93;3.33;;;;;;;;;;5035193;28;20036;-63
2022/04/13 12:43:31;;;;;;;8.63;3.67;;;;;;;;;;5031380;28;20147;-63
2022/04/13 12:45:57;;;;;;;6.85;3.90;;;;;;;;;;5049737;28;20047;-63
2022/04/13 12:48:28;;;;;;;7.63;3.40;;;;;;;;;;5047205;28;20032;-63
2022/04/13 12:50:55;;;;;;;9.32;3.33;;;;;;;;;;5049977;28;20048;-63
2022/04/13 12:53:21;;;;;;;8.88;3.72;;;;;;;;;;5048655;28;20029;-64
2022/04/13 12:55:57;;;;;;;7.88;3.70;;;;;;;;;;5049347;28;20040;-63
2022/04/13 12:58:23;;;;;;;11.27;3.40;;;;;;;;;;5037790;28;20037;-60
2022/04/13 13:00:52;;;;;;;8.65;3.35;;;;;;;;;;5027416;28;20490;-59
2022/04/13 13:03:19;;;;;;;9.43;3.28;;;;;;;;;;5027753;28;20151;-59
2022/04/13 13:05:44;;;;;;;7.18;3.65;;;;;;;;;;5049695;28;20051;-58
2022/04/13 13:08:10;;;;;;;10.65;3.80;;;;;;;;;;5050536;28;20461;-59
2022/04/13 13:10:36;;;;;;;5.70;3.20;;;;;;;;;;5050557;28;20040;-60
2022/04/13 13:13:36;;;;;;;6.63;3.20;;;;;;;;;;5046663;28;20040;-60
2022/04/13 13:16:01;;;;;;;7.90;3.15;;;;;;;;;;5030683;28;20461;-60
2022/04/13 13:18:27;;;;;;;8.93;3.00;;;;;;;;;;5054353;28;20106;-60
2022/04/13 13:20:57;;;;;;;6.78;3.70;;;;;;;;;;5049887;28;20092;-60
2022/04/13 13:23:24;;;;;;;7.40;4.05;;;;;;;;;;5053710;28;20405;-60
2022/04/13 13:25:50;;;;;;;8.35;4.40;;;;;;;;;;5038829;28;20039;-60
2022/04/13 13:28:15;;;;;;;10.00;4.45;;;;;;;;;;5037269;28;20025;-60
2022/04/13 13:30:41;;;;;;;11.43;4.72;;;;;;;;;;5035869;28;20028;-62
2022/04/13 13:33:11;;;;;;;11.13;4.68;;;;;;;;;;5045418;28;20025;-60
2022/04/13 13:35:37;;;;;;;9.50;4.50;;;;;;;;;;5053158;28;20149;-60
2022/04/13 13:38:08;;;;;;;11.35;4.72;;;;;;;;;;5035981;28;20033;-59
2022/04/13 13:40:37;;;;;;;9.15;4.10;;;;;;;;;;5049165;28;20043;-57
2022/04/13 13:43:25;;;;;;;9.38;4.43;;;;;;;;;;5034509;28;20459;-60
2022/04/13 13:45:52;;;;;;;8.27;4.30;;;;;;;;;;5047417;28;20056;-60
2022/04/13 13:48:25;;;;;;;8.07;4.43;;;;;;;;;;5038905;28;20053;-64
2022/04/13 13:50:52;;;;;;;12.23;4.35;;;;;;;;;;5015547;28;20073;-63
2022/04/13 13:53:20;;;;;;;8.30;3.83;;;;;;;;;;5048732;28;20037;-60
2022/04/13 13:55:46;;;;;;;7.07;4.28;;;;;;;;;;5053507;28;20123;-60
2022/04/13 13:58:12;;;;;;;6.75;4.20;;;;;;;;;;5053855;28;20141;-60
2022/04/13 14:00:38;;;;;;;8.15;4.15;;;;;;;;;;5054787;28;20033;-60
2022/04/13 14:03:08;;;;;;;8.52;4.10;;;;;;;;;;5034470;28;20049;-60
2022/04/13 14:05:34;;;;;;;9.20;4.22;;;;;;;;;;5033212;28;20038;-60
2022/04/13 14:08:04;;;;;;;10.57;4.00;;;;;;;;;;5014319;28;20117;-60
2022/04/13 14:10:30;;;;;;;11.63;4.57;;;;;;;;;;5045474;28;20044;-60
2022/04/13 14:12:56;;;;;;;8.90;4.55;;;;;;;;;;5049753;28;20036;-60
2022/04/13 14:15:21;;;;;;;8.15;4.90;;;;;;;;;;5050354;28;20104;-60
2022/04/13 14:17:48;;;;;;;8.25;4.53;;;;;;;;;;5053395;28;20033;-60
2022/04/13 14:20:15;;;;;;;11.88;5.28;;;;;;;;;;5049470;28;20037;-60
2022/04/13 14:22:42;;;;;;;9.27;5.63;;;;;;;;;;5044393;28;20154;-60
2022/04/13 14:25:10;;;;;;;11.55;6.00;;;;;;;;;;5028331;28;20024;-59
2022/04/13 14:27:36;;;;;;;11.82;6.90;;;;;;;;;;5050976;28;20029;-60
2022/04/13 14:30:10;;;;;;;13.27;6.68;;;;;;;;;;5047804;28;20067;-61
2022/04/13 14:32:37;;;;;;;9.75;6.65;;;;;;;;;;5049260;28;20056;-60
2022/04/13 14:35:06;;;;;;;10.98;6.70;;;;;;;;;;5041819;28;20029;-61
2022/04/13 14:37:33;;;;;;;12.52;6.82;;;;;;;;;;5052466;28;20060;-60
2022/04/13 14:39:59;;;;;;;14.63;7.38;;;;;;;;;;5044718;28;20040;-60
2022/04/13 14:42:24;;;;;;;13.85;7.43;;;;;;;;;;5053026;28;20025;-60